Time;durP1;ratioP1;P1;durP2;ratioP2;P2;SDS_P1;SDS_P2;PMS_P1;PMS_P2;Temp;Humidity;BMP_temperature;BMP_pressure;BME280_temperature;BME280_humidity;BME280_pressure;Samples;Min_cycle;Max_cycle;Signal;HPM_P1;HPM_P2
2021/12/28 00:00:13;;;;;;;101.68;44.15;;;;;;;6.83;100.00;99210.28;5035769;28;20045;-50
2021/12/28 00:02:40;;;;;;;109.45;45.78;;;;;;;6.82;100.00;99195.50;5036163;28;20032;-48
2021/12/28 00:05:06;;;;;;;131.35;47.58;;;;;;;6.52;100.00;99145.38;5053716;28;20052;-49
2021/12/28 00:07:32;;;;;;;110.00;43.47;;;;;;;6.79;100.00;99199.94;5053532;28;20472;-49
2021/12/28 00:09:58;;;;;;;113.05;43.83;;;;;;;6.45;100.00;99138.72;5035998;28;20032;-50
2021/12/28 00:12:23;;;;;;;118.28;43.50;;;;;;;6.44;100.00;99134.41;5054036;28;20476;-50
2021/12/28 00:15:04;;;;;;;106.50;43.05;;;;;;;6.78;100.00;99192.16;5053920;28;20035;-50
2021/12/28 00:20:14;;;;;;;110.32;40.25;;;;;;;6.46;100.00;99133.41;5054060;28;20542;-49
2021/12/28 00:22:39;;;;;;;112.05;40.15;;;;;;;6.65;100.00;99170.09;5052754;28;20037;-48
2021/12/28 00:25:05;;;;;;;90.88;36.60;;;;;;;6.67;100.00;99173.47;5053083;28;20037;-50
2021/12/28 00:27:31;;;;;;;93.90;37.53;;;;;;;6.41;100.00;99130.16;5053689;28;20037;-53
2021/12/28 00:29:56;;;;;;;100.53;36.35;;;;;;;6.51;100.00;99141.91;5053803;28;20389;-52
2021/12/28 00:32:22;;;;;;;85.55;34.35;;;;;;;6.39;100.00;99111.06;5053662;28;20036;-51
2021/12/28 00:34:47;;;;;;;83.53;33.35;;;;;;;6.91;100.00;99184.63;5053621;28;20212;-51
2021/12/28 00:37:12;;;;;;;83.13;32.75;;;;;;;6.99;100.00;99196.47;5053575;28;20036;-49
2021/12/28 00:39:38;;;;;;;93.25;34.53;;;;;;;6.79;100.00;99146.78;5053742;28;20029;-50
2021/12/28 00:42:04;;;;;;;87.35;33.28;;;;;;;7.06;100.00;99184.81;5053374;28;20056;-50
2021/12/28 00:44:29;;;;;;;98.00;34.75;;;;;;;6.85;100.00;99136.06;5053477;28;20033;-50
2021/12/28 00:46:55;;;;;;;83.50;32.80;;;;;;;7.11;100.00;99177.63;5053367;28;20044;-50
2021/12/28 00:49:20;;;;;;;87.63;34.13;;;;;;;6.74;100.00;99118.22;5053334;28;20115;-50
2021/12/28 00:51:45;;;;;;;98.65;34.95;;;;;;;6.93;100.00;99146.19;5053293;28;20539;-49
2021/12/28 00:54:10;;;;;;;99.50;35.35;;;;;;;7.03;100.00;99173.63;5035489;28;20114;-51
2021/12/28 00:56:36;;;;;;;96.32;34.15;;;;;;;6.99;100.00;99166.84;5053549;28;20025;-49
2021/12/28 00:59:01;;;;;;;86.30;32.60;;;;;;;6.96;100.00;99172.19;5035388;28;20045;-49
2021/12/28 01:01:27;;;;;;;78.78;32.05;;;;;;;6.89;100.00;99162.94;5053195;28;20043;-53
2021/12/28 01:03:52;;;;;;;81.40;32.05;;;;;;;6.36;100.00;99076.38;5052811;28;20095;-53
2021/12/28 01:06:17;;;;;;;83.88;31.48;;;;;;;6.73;100.00;99142.69;5052918;28;20029;-50
2021/12/28 01:08:43;;;;;;;74.47;29.95;;;;;;;6.37;100.00;99091.97;5052917;28;20399;-50
2021/12/28 01:11:08;;;;;;;82.43;30.73;;;;;;;6.63;100.00;99150.97;5053298;28;20036;-48
2021/12/28 01:13:33;;;;;;;83.53;30.25;;;;;;;6.53;100.00;99139.22;5052923;28;20502;-51
2021/12/28 01:15:59;;;;;;;87.65;30.90;;;;;;;6.39;100.00;99125.91;5053010;28;20404;-51
2021/12/28 01:18:24;;;;;;;79.50;29.38;;;;;;;6.38;100.00;99135.50;5052933;28;20058;-48
2021/12/28 01:20:50;;;;;;;72.30;28.75;;;;;;;6.06;100.00;99099.44;5034965;28;20392;-50
2021/12/28 01:23:16;;;;;;;90.05;30.50;;;;;;;6.20;100.00;99137.13;5052783;28;20447;-49
2021/12/28 01:25:41;;;;;;;83.68;28.30;;;;;;;6.22;100.00;99156.19;5052798;28;20033;-50
2021/12/28 01:28:07;;;;;;;62.53;26.15;;;;;;;5.78;100.00;99075.34;5034584;28;20040;-50
2021/12/28 01:30:32;;;;;;;72.80;27.50;;;;;;;6.12;100.00;99133.13;5052673;28;20391;-51
2021/12/28 01:32:59;;;;;;;79.53;27.23;;;;;;;6.14;100.00;99139.13;5052291;28;20481;-48
2021/12/28 01:35:25;;;;;;;73.85;25.55;;;;;;;5.96;100.00;99111.16;5034951;28;20036;-49
2021/12/28 01:37:51;;;;;;;77.70;25.13;;;;;;;6.18;100.00;99157.25;5052735;28;20060;-49
2021/12/28 01:40:22;;;;;;;84.07;27.60;;;;;;;6.22;100.00;99142.28;5052687;28;20064;-47
2021/12/28 01:43:12;;;;;;;76.38;26.38;;;;;;;6.24;100.00;99148.31;5034864;28;20033;-52
2021/12/28 01:46:10;;;;;;;71.72;24.63;;;;;;;6.29;100.00;99146.34;5052488;28;20033;-51
2021/12/28 01:48:41;;;;;;;69.50;24.75;;;;;;;5.69;100.00;99034.81;5018501;28;20581;-50
2021/12/28 01:51:08;;;;;;;;;;;;;;;6.33;100.00;99137.47;5052965;28;20064;-48
2021/12/28 01:53:34;;;;;;;81.72;23.33;;;;;;;6.34;100.00;99144.38;5052415;28;19912;-50
2021/12/28 01:56:05;;;;;;;66.57;23.05;;;;;;;6.35;100.00;99142.63;5052370;28;20360;-51
2021/12/28 01:58:32;;;;;;;91.57;24.48;;;;;;;6.04;100.00;99085.59;5051841;28;20103;-49
2021/12/28 02:00:58;;;;;;;71.88;24.70;;;;;;;6.04;100.00;99080.38;5052467;28;20045;-49
2021/12/28 02:03:24;;;;;;;75.97;25.77;;;;;;;6.05;100.00;99082.91;5052388;28;20033;-49
2021/12/28 02:05:50;;;;;;;72.47;24.80;;;;;;;6.43;100.00;99150.97;5034339;28;20029;-48
2021/12/28 02:08:16;;;;;;;68.90;24.40;;;;;;;6.43;100.00;99154.44;5052017;28;20403;-49
2021/12/28 02:10:44;;;;;;;89.30;24.73;;;;;;;6.11;100.00;99100.94;5034195;28;20564;-49
2021/12/28 02:13:09;;;;;;;84.32;24.65;;;;;;;6.36;100.00;99126.88;5052186;28;20467;-48
2021/12/28 02:15:36;;;;;;;76.22;23.85;;;;;;;6.36;100.00;99126.88;5034623;28;20029;-51
2021/12/28 02:18:02;;;;;;;74.93;23.02;;;;;;;6.40;100.00;99127.59;5052309;28;20029;-50
2021/12/28 02:20:28;;;;;;;74.43;23.13;;;;;;;6.04;100.00;99070.75;5052089;28;20385;-50
2021/12/28 02:22:53;;;;;;;67.03;23.20;;;;;;;6.40;100.00;99131.06;5052072;28;20120;-50
2021/12/28 02:25:19;;;;;;;74.63;21.95;;;;;;;6.12;100.00;99086.13;5033910;28;20373;-51
2021/12/28 02:27:45;;;;;;;73.15;22.63;;;;;;;6.42;100.00;99134.44;5034298;28;20069;-50
2021/12/28 02:30:14;;;;;;;75.40;22.33;;;;;;;6.10;100.00;99072.28;5052318;28;20124;-48
2021/12/28 02:32:41;;;;;;;63.05;21.67;;;;;;;6.22;100.00;99096.09;5052136;28;20036;-50
2021/12/28 02:35:09;;;;;;;74.25;21.92;;;;;;;6.53;100.00;99136.63;5051777;28;20037;-46
2021/12/28 02:37:35;;;;;;;70.95;20.48;;;;;;;6.20;100.00;99077.03;5051809;28;20150;-49
2021/12/28 02:40:00;;;;;;;74.78;21.95;;;;;;;6.59;100.00;99136.34;5033897;28;20467;-46
2021/12/28 02:42:26;;;;;;;85.78;21.20;;;;;;;6.65;100.00;99141.31;5034058;28;20116;-55
2021/12/28 02:45:10;;;;;;;71.53;20.95;;;;;;;6.31;100.00;99079.19;5051523;28;20120;-50
2021/12/28 02:47:42;;;;;;;79.60;20.25;;;;;;;6.34;100.00;99072.97;5054226;28;20487;-49
2021/12/28 02:50:14;;;;;;;67.45;21.42;;;;;;;6.48;100.00;99096.75;5055453;28;20119;-49
2021/12/28 02:52:40;;;;;;;61.30;19.58;;;;;;;6.64;100.00;99123.94;5055900;28;20047;-49
2021/12/28 02:55:08;;;;;;;83.85;21.30;;;;;;;6.60;100.00;99114.50;5021094;28;20041;-50
2021/12/28 02:57:34;;;;;;;65.47;19.27;;;;;;;6.36;100.00;99053.72;5055679;28;20033;-48
2021/12/28 02:59:59;;;;;;;66.60;20.67;;;;;;;6.69;100.00;99116.72;5055316;28;20550;-48
2021/12/28 03:02:25;;;;;;;71.78;19.55;;;;;;;6.69;100.00;99117.56;5055450;28;20069;-47
2021/12/28 03:04:50;;;;;;;68.43;18.38;;;;;;;6.73;100.00;99102.59;5055202;28;20112;-49
2021/12/28 03:07:16;;;;;;;77.07;19.30;;;;;;;6.70;100.00;99095.75;5055482;28;20072;-48
2021/12/28 03:09:41;;;;;;;78.60;18.92;;;;;;;6.62;100.00;99084.78;5055297;28;20033;-49
2021/12/28 03:12:07;;;;;;;56.45;18.35;;;;;;;6.71;100.00;99096.59;5055386;28;20039;-49
2021/12/28 03:14:32;;;;;;;71.97;18.27;;;;;;;6.76;100.00;99103.34;5055061;28;20087;-50
2021/12/28 03:16:58;;;;;;;69.05;17.92;;;;;;;6.42;100.00;99037.75;5055223;28;20439;-48
2021/12/28 03:19:24;;;;;;;63.20;17.45;;;;;;;6.79;100.00;99097.97;5037317;28;20094;-50
2021/12/28 03:21:50;;;;;;;76.63;17.73;;;;;;;6.46;100.00;99038.47;5054924;28;20083;-51
2021/12/28 03:24:17;;;;;;;64.45;18.13;;;;;;;5.68;100.00;98916.47;5054937;28;20037;-51
2021/12/28 03:26:42;;;;;;;70.15;17.88;;;;;;;6.47;100.00;99032.34;5036989;28;20025;-49
2021/12/28 03:29:08;;;;;;;60.00;17.63;;;;;;;6.80;100.00;99086.56;5054946;28;20037;-52
2021/12/28 03:31:33;;;;;;;68.15;18.23;;;;;;;6.80;100.00;99083.94;5054948;28;20052;-50
2021/12/28 03:33:58;;;;;;;63.20;17.38;;;;;;;6.45;100.00;99016.69;5037070;28;20040;-47
2021/12/28 03:36:28;;;;;;;76.80;18.65;;;;;;;6.79;100.00;99081.41;5036889;28;20527;-50
2021/12/28 03:38:54;;;;;;;67.95;18.70;;;;;;;6.77;100.00;99073.63;5055037;28;20035;-49
2021/12/28 03:41:21;;;;;;;73.80;18.05;;;;;;;6.47;100.00;99008.81;5037044;28;20055;-51
2021/12/28 03:43:51;;;;;;;65.72;18.58;;;;;;;6.48;100.00;99011.34;5054693;28;20518;-50
2021/12/28 03:46:17;;;;;;;75.13;18.88;;;;;;;6.67;100.00;99040.13;5054726;28;20033;-48
2021/12/28 03:48:43;;;;;;;78.95;18.98;;;;;;;6.78;100.00;99064.03;5054581;28;20418;-48
2021/12/28 03:51:09;;;;;;;71.50;17.33;;;;;;;6.85;100.00;99060.22;5054723;28;20039;-49
2021/12/28 03:53:34;;;;;;;73.43;17.00;;;;;;;6.82;100.00;99051.66;5054367;28;20104;-48
2021/12/28 03:56:00;;;;;;;64.40;17.90;;;;;;;6.73;100.00;99025.03;5054450;28;20067;-49
2021/12/28 03:58:26;;;;;;;71.00;17.73;;;;;;;6.90;100.00;99053.00;5053009;28;20392;-52
2021/12/28 04:00:52;;;;;;;52.72;18.02;;;;;;;6.54;100.00;98987.53;5054337;28;20121;-47
2021/12/28 04:03:17;;;;;;;81.53;17.67;;;;;;;6.90;100.00;99058.25;5020243;28;20499;-46
2021/12/28 04:05:44;;;;;;;81.45;19.45;;;;;;;6.93;100.00;99065.09;5036556;28;20086;-49
2021/12/28 04:08:11;;;;;;;88.70;18.77;;;;;;;6.94;100.00;99054.59;5036538;28;20459;-50
2021/12/28 04:10:55;;;;;;;72.93;19.00;;;;;;;6.70;100.00;99009.47;5054336;28;20029;-50
2021/12/28 04:13:22;;;;;;;72.50;18.35;;;;;;;6.67;100.00;98996.53;5054113;28;20365;-50
2021/12/28 04:15:48;;;;;;;88.32;19.10;;;;;;;6.60;100.00;98978.56;5036084;28;20112;-50
2021/12/28 04:18:15;;;;;;;69.68;19.13;;;;;;;6.98;100.00;99042.19;5054264;28;20132;-50
2021/12/28 04:20:40;;;;;;;82.43;20.38;;;;;;;7.00;100.00;99032.53;5036084;28;20080;-51
2021/12/28 04:23:06;;;;;;;87.50;20.75;;;;;;;6.99;100.00;99029.03;5053739;28;20029;-49
2021/12/28 04:25:31;;;;;;;84.90;19.55;;;;;;;6.93;100.00;99010.16;5054412;28;20033;-53
2021/12/28 04:27:57;;;;;;;90.85;21.27;;;;;;;6.69;100.00;98968.53;5053726;28;20075;-49
2021/12/28 04:30:22;;;;;;;91.47;18.98;;;;;;;7.08;100.00;99017.31;5053753;28;20041;-52
2021/12/28 04:32:48;;;;;;;89.82;19.90;;;;;;;7.12;100.00;99039.81;5053830;28;20499;-50
2021/12/28 04:35:14;;;;;;;87.45;21.45;;;;;;;7.07;100.00;99018.22;5053815;28;20037;-52
2021/12/28 04:37:40;;;;;;;90.20;20.85;;;;;;;7.12;100.00;99018.88;5053645;28;20041;-52
2021/12/28 04:40:08;;;;;;;91.57;20.98;;;;;;;7.13;100.00;99017.94;5035761;28;20376;-48
2021/12/28 04:42:33;;;;;;;72.25;20.85;;;;;;;6.79;100.00;98948.91;5053507;28;20033;-50
2021/12/28 04:44:59;;;;;;;74.85;20.42;;;;;;;6.86;100.00;98959.09;5053531;28;20082;-51
2021/12/28 04:47:25;;;;;;;76.97;18.67;;;;;;;6.84;100.00;98958.28;5053720;28;20037;-50
2021/12/28 04:49:50;;;;;;;73.45;18.15;;;;;;;6.90;100.00;98966.69;5053559;28;20048;-47
2021/12/28 04:52:15;;;;;;;74.47;18.45;;;;;;;7.16;100.00;99009.94;5053380;28;20102;-49
2021/12/28 04:54:41;;;;;;;75.15;18.50;;;;;;;7.25;100.00;99012.13;5053377;28;20177;-48
2021/12/28 04:57:06;;;;;;;79.00;17.90;;;;;;;7.27;100.00;99007.66;5053307;28;20120;-48
2021/12/28 04:59:34;;;;;;;81.00;17.38;;;;;;;7.25;100.00;98999.03;5053110;28;20056;-50
2021/12/28 05:01:59;;;;;;;70.03;17.45;;;;;;;7.33;100.00;99002.13;5053109;28;20029;-50
2021/12/28 05:04:24;;;;;;;71.40;16.73;;;;;;;7.38;100.00;98994.91;5053484;28;20349;-48
2021/12/28 05:06:52;;;;;;;74.93;16.30;;;;;;;7.40;100.00;98993.06;5053204;28;20033;-51
2021/12/28 05:09:18;;;;;;;90.00;18.95;;;;;;;7.35;100.00;98984.59;5052741;28;20437;-51
2021/12/28 05:11:44;;;;;;;84.25;18.55;;;;;;;7.35;100.00;98972.34;5052695;28;20491;-51
2021/12/28 05:14:11;;;;;;;89.13;19.80;;;;;;;7.45;100.00;98988.44;5035213;28;20033;-49
2021/12/28 05:16:36;;;;;;;80.05;18.48;;;;;;;7.07;100.00;98924.88;5053104;28;20029;-52
2021/12/28 05:19:04;;;;;;;76.32;18.05;;;;;;;7.18;100.00;98934.84;5052972;28;20392;-52
2021/12/28 05:21:30;;;;;;;80.35;18.92;;;;;;;7.21;100.00;98938.13;5053041;28;20036;-54
2021/12/28 05:23:55;;;;;;;68.05;17.35;;;;;;;7.49;100.00;98976.06;5052765;28;20047;-48
2021/12/28 05:26:21;;;;;;;91.03;17.98;;;;;;;7.53;100.00;98975.81;5052690;28;20068;-51
2021/12/28 05:28:46;;;;;;;75.72;18.58;;;;;;;7.53;100.00;98981.06;5052598;28;20095;-48
2021/12/28 05:31:12;;;;;;;79.63;19.98;;;;;;;7.44;100.00;98941.41;5052849;28;20463;-50
2021/12/28 05:33:38;;;;;;;75.93;18.73;;;;;;;7.61;100.00;98968.47;5052813;28;20044;-50
2021/12/28 05:36:04;;;;;;;68.85;22.20;;;;;;;7.58;100.00;98960.75;5052330;28;20044;-51
2021/12/28 05:38:29;;;;;;;82.75;22.75;;;;;;;7.71;100.00;98972.28;5034900;28;20412;-49
2021/12/28 05:40:55;;;;;;;91.38;26.17;;;;;;;7.77;100.00;98963.28;5052681;28;20408;-50
2021/12/28 05:43:20;;;;;;;99.10;28.38;;;;;;;7.82;100.00;98954.25;5052473;28;20044;-52
2021/12/28 05:45:45;;;;;;;77.13;26.95;;;;;;;7.56;100.00;98899.75;5052781;28;20043;-51
2021/12/28 05:48:11;;;;;;;97.32;30.92;;;;;;;7.94;100.00;98951.00;5052531;28;20514;-53
2021/12/28 05:50:37;;;;;;;80.50;28.85;;;;;;;7.93;100.00;98940.63;5034870;28;20041;-51
2021/12/28 05:53:03;;;;;;;90.70;30.50;;;;;;;7.71;100.00;98890.25;5034618;28;20033;-57
2021/12/28 05:55:28;;;;;;;95.47;32.13;;;;;;;8.10;100.00;98958.09;5034574;28;20033;-49
2021/12/28 05:57:54;;;;;;;92.40;30.88;;;;;;;7.77;100.00;98888.19;5034496;28;20060;-50
2021/12/28 06:00:19;;;;;;;81.38;30.63;;;;;;;8.07;100.00;98925.03;5052438;28;20045;-51
2021/12/28 06:02:45;;;;;;;85.75;31.63;;;;;;;7.93;100.00;98883.84;5034509;28;20045;-49
2021/12/28 06:05:11;;;;;;;66.57;29.55;;;;;;;8.20;100.00;98928.69;5052336;28;20037;-48
2021/12/28 06:07:36;;;;;;;78.82;30.48;;;;;;;8.22;100.00;98916.38;5052135;28;20037;-47
2021/12/28 06:10:03;;;;;;;79.50;29.75;;;;;;;8.24;100.00;98926.75;5052113;28;20116;-49
2021/12/28 06:12:28;;;;;;;65.93;27.67;;;;;;;8.27;100.00;98916.09;5052011;28;20114;-50
2021/12/28 06:14:54;;;;;;;73.07;29.55;;;;;;;8.22;100.00;98905.88;5052217;28;20075;-50
2021/12/28 06:17:19;;;;;;;70.75;28.23;;;;;;;8.07;100.00;98872.63;5034479;28;20036;-47
2021/12/28 06:19:45;;;;;;;58.70;26.88;;;;;;;8.03;100.00;98851.91;5017958;28;20036;-49
2021/12/28 06:22:10;;;;;;;78.07;29.40;;;;;;;8.38;100.00;98901.53;5036330;28;20494;-51
2021/12/28 06:24:36;;;;;;;82.15;29.88;;;;;;;8.05;100.00;98853.53;5038520;28;20563;-50
2021/12/28 06:27:01;;;;;;;66.80;29.65;;;;;;;8.38;100.00;98908.53;5055681;28;20056;-51
2021/12/28 06:29:26;;;;;;;70.57;28.63;;;;;;;8.29;100.00;98891.53;5038467;28;20036;-48
2021/12/28 06:31:52;;;;;;;75.65;29.50;;;;;;;8.38;100.00;98913.78;5056214;28;20029;-58
2021/12/28 06:34:17;;;;;;;77.60;30.55;;;;;;;8.07;100.00;98858.66;5056348;28;20065;-50
2021/12/28 06:36:43;;;;;;;64.25;28.92;;;;;;;8.24;100.00;98892.69;5038196;28;20066;-50
2021/12/28 06:39:10;;;;;;;59.58;25.90;;;;;;;8.34;100.00;98910.50;5055791;28;20075;-49
2021/12/28 06:41:35;;;;;;;71.70;28.52;;;;;;;8.08;100.00;98861.22;5055850;28;20099;-49
2021/12/28 06:44:01;;;;;;;77.38;30.67;;;;;;;8.35;100.00;98895.59;5038249;28;20468;-50
2021/12/28 06:46:26;;;;;;;68.88;28.27;;;;;;;8.35;100.00;98893.81;5056005;28;20415;-46
2021/12/28 06:48:51;;;;;;;71.95;30.05;;;;;;;8.38;100.00;98896.28;5055458;28;20033;-51
2021/12/28 06:51:17;;;;;;;60.90;29.50;;;;;;;8.40;100.00;98893.59;5055444;28;20036;-49
2021/12/28 06:53:42;;;;;;;64.75;29.58;;;;;;;8.18;100.00;98844.06;5055625;28;20041;-49
2021/12/28 06:56:08;;;;;;;69.05;29.80;;;;;;;8.18;100.00;98851.94;5037656;28;20082;-50
2021/12/28 06:58:33;;;;;;;65.68;30.35;;;;;;;8.44;100.00;98892.47;5055606;28;20168;-51
2021/12/28 07:00:59;;;;;;;67.63;30.55;;;;;;;8.47;100.00;98892.31;5036554;28;20037;-49
2021/12/28 07:03:24;;;;;;;71.72;32.70;;;;;;;8.45;100.00;98888.94;5037275;28;20037;-56
2021/12/28 07:05:50;;;;;;;72.45;33.33;;;;;;;8.41;100.00;98879.53;5054676;28;20124;-49
2021/12/28 07:08:15;;;;;;;73.18;35.33;;;;;;;8.54;100.00;98887.59;5036989;28;20138;-48
2021/12/28 07:10:42;;;;;;;84.60;36.70;;;;;;;8.26;100.00;98846.28;5037638;28;20036;-48
2021/12/28 07:13:07;;;;;;;80.80;35.22;;;;;;;8.49;100.00;98888.69;5055189;28;20507;-49
2021/12/28 07:15:32;;;;;;;85.13;38.08;;;;;;;8.55;100.00;98878.81;5055411;28;20041;-49
2021/12/28 07:17:58;;;;;;;100.57;40.42;;;;;;;8.44;100.00;98847.91;5055115;28;20040;-50
2021/12/28 07:20:23;;;;;;;105.28;41.25;;;;;;;8.27;100.00;98811.25;5055300;28;20029;-49
2021/12/28 07:22:49;;;;;;;94.28;40.50;;;;;;;8.28;100.00;98821.72;5037221;28;20060;-53
2021/12/28 07:25:14;;;;;;;107.40;42.97;;;;;;;8.27;100.00;98822.63;5055006;28;20033;-48
2021/12/28 07:27:40;;;;;;;102.43;43.70;;;;;;;8.56;100.00;98877.84;5036798;28;20087;-50
2021/12/28 07:30:08;;;;;;;102.32;42.40;;;;;;;8.53;100.00;98872.78;5055221;28;20033;-47
2021/12/28 07:32:34;;;;;;;98.65;44.80;;;;;;;8.57;100.00;98876.94;5036849;28;20031;-52
2021/12/28 07:34:59;;;;;;;98.47;43.22;;;;;;;8.56;100.00;98883.09;5055069;28;20463;-50
2021/12/28 07:37:24;;;;;;;97.78;43.75;;;;;;;8.60;100.00;98874.16;5054583;28;20037;-49
2021/12/28 07:39:50;;;;;;;87.78;41.13;;;;;;;8.59;100.00;98856.72;5036982;28;20404;-49
2021/12/28 07:42:19;;;;;;;79.53;39.35;;;;;;;8.32;100.00;98811.88;5054821;28;20064;-50
2021/12/28 07:44:44;;;;;;;96.03;43.00;;;;;;;8.34;100.00;98824.00;5055114;28;20377;-48
2021/12/28 07:47:10;;;;;;;103.05;42.17;;;;;;;8.36;100.00;98816.88;5054596;28;20040;-51
2021/12/28 07:49:35;;;;;;;89.80;39.70;;;;;;;8.30;100.00;98801.50;5054716;28;20064;-48
2021/12/28 07:52:01;;;;;;;101.97;41.83;;;;;;;8.57;100.00;98840.22;5053031;28;20358;-48
2021/12/28 07:54:26;;;;;;;104.60;42.25;;;;;;;8.64;100.00;98852.06;5054439;28;20033;-47
2021/12/28 07:56:52;;;;;;;91.35;39.95;;;;;;;8.39;100.00;98808.00;5054683;28;20029;-50
2021/12/28 07:59:17;;;;;;;92.45;40.20;;;;;;;8.36;100.00;98800.31;5054346;28;20049;-50
2021/12/28 08:01:42;;;;;;;96.78;38.70;;;;;;;8.40;100.00;98805.31;5054258;28;20036;-51
2021/12/28 08:04:08;;;;;;;91.50;39.33;;;;;;;8.62;100.00;98833.78;5054482;28;20071;-49
2021/12/28 08:06:33;;;;;;;97.32;40.03;;;;;;;8.69;100.00;98839.53;5054433;28;20037;-48
2021/12/28 08:08:59;;;;;;;91.40;38.50;;;;;;;8.72;100.00;98842.00;5053806;28;20032;-50
2021/12/28 08:11:24;;;;;;;90.53;39.28;;;;;;;8.64;100.00;98812.75;5054006;28;20377;-53
2021/12/28 08:13:50;;;;;;;105.68;42.05;;;;;;;8.55;100.00;98792.28;5036520;28;20029;-54
2021/12/28 08:16:15;;;;;;;98.35;42.33;;;;;;;8.72;100.00;98834.97;5036364;28;20113;-51
2021/12/28 08:18:41;;;;;;;96.95;41.90;;;;;;;8.75;100.00;98833.94;5054158;28;20132;-51
2021/12/28 08:21:06;;;;;;;103.75;44.08;;;;;;;8.42;100.00;98774.59;5053817;28;20037;-49
2021/12/28 08:23:32;;;;;;;102.15;44.10;;;;;;;8.40;100.00;98770.38;5054036;28;20095;-48
2021/12/28 08:25:57;;;;;;;94.68;42.55;;;;;;;8.75;100.00;98816.44;5054209;28;20036;-52
2021/12/28 08:28:22;;;;;;;99.65;43.22;;;;;;;8.55;100.00;98787.88;5054231;28;20036;-47
2021/12/28 08:30:48;;;;;;;100.90;42.35;;;;;;;8.77;100.00;98824.22;5053962;28;20040;-50
2021/12/28 08:33:14;;;;;;;82.80;40.35;;;;;;;8.78;100.00;98823.28;5053569;28;20033;-49
2021/12/28 08:35:40;;;;;;;92.88;40.00;;;;;;;8.52;100.00;98774.09;5053803;28;20113;-47
2021/12/28 08:38:07;;;;;;;80.15;38.33;;;;;;;8.83;100.00;98821.25;5053859;28;20033;-50
2021/12/28 08:40:32;;;;;;;87.30;36.85;;;;;;;8.74;100.00;98806.03;5053611;28;20037;-50
2021/12/28 08:42:58;;;;;;;68.82;34.08;;;;;;;8.55;100.00;98773.91;5053597;28;20090;-49
2021/12/28 08:45:24;;;;;;;84.55;36.03;;;;;;;8.84;100.00;98799.31;5053097;28;20029;-50
2021/12/28 08:47:50;;;;;;;65.10;31.15;;;;;;;8.89;100.00;98805.16;5053434;28;20472;-48
2021/12/28 08:50:17;;;;;;;64.60;29.58;;;;;;;8.76;100.00;98784.00;5035722;28;20031;-50
2021/12/28 08:52:44;;;;;;;61.13;29.13;;;;;;;8.89;100.00;98800.75;5019089;28;20039;-48
2021/12/28 08:55:09;;;;;;;55.40;29.25;;;;;;;8.98;100.00;98815.13;5053154;28;20112;-50
2021/12/28 08:57:34;;;;;;;49.83;27.13;;;;;;;9.00;100.00;98816.72;5053478;28;20438;-53
2021/12/28 09:00:00;;;;;;;52.85;27.40;;;;;;;8.78;100.00;98758.56;5053073;28;20469;-50
2021/12/28 09:02:25;;;;;;;54.60;28.35;;;;;;;8.77;100.00;98753.38;5053090;28;20078;-52
2021/12/28 09:04:51;;;;;;;53.45;28.20;;;;;;;9.02;100.00;98791.22;5053266;28;20031;-53
2021/12/28 09:07:17;;;;;;;46.40;25.70;;;;;;;8.80;100.00;98747.97;5053046;28;20397;-52
2021/12/28 09:09:46;;;;;;;57.25;28.38;;;;;;;9.11;100.00;98789.00;5053056;28;20040;-49
2021/12/28 09:12:12;;;;;;;50.63;27.10;;;;;;;9.11;100.00;98779.34;5053016;28;20041;-52
2021/12/28 09:14:39;;;;;;;52.78;27.63;;;;;;;8.84;100.00;98745.06;5035244;28;20044;-50
2021/12/28 09:17:05;;;;;;;40.38;23.80;;;;;;;9.07;100.00;98775.22;5053029;28;20115;-49
2021/12/28 09:19:31;;;;;;;42.47;24.25;;;;;;;9.18;100.00;98771.94;5053033;28;20077;-49
2021/12/28 09:21:57;;;;;;;46.40;23.55;;;;;;;8.89;100.00;98721.19;5035291;28;20491;-50
2021/12/28 09:24:23;;;;;;;42.45;22.50;;;;;;;9.22;100.00;98769.06;5035124;28;20040;-49
2021/12/28 09:26:49;;;;;;;40.70;21.45;;;;;;;9.24;100.00;98776.84;5052963;28;20021;-51
2021/12/28 09:29:14;;;;;;;44.55;23.17;;;;;;;9.28;100.00;98771.31;5052748;28;20099;-48
2021/12/28 09:31:39;;;;;;;40.15;20.52;;;;;;;9.25;100.00;98778.53;5052889;28;20159;-52
2021/12/28 09:34:05;;;;;;;25.85;17.75;;;;;;;9.26;100.00;98756.59;5018509;28;20029;-49
2021/12/28 09:36:30;;;;;;;26.65;17.65;;;;;;;9.27;100.00;98761.75;5069631;28;20063;-48
2021/12/28 09:38:56;;;;;;;28.90;16.92;;;;;;;9.19;100.00;98745.63;5072403;28;20123;-50
2021/12/28 09:41:21;;;;;;;28.00;16.35;;;;;;;9.24;100.00;98753.22;5072686;28;20476;-51
2021/12/28 09:43:46;;;;;;;26.95;16.50;;;;;;;9.02;100.00;98711.63;5069760;28;20033;-55
2021/12/28 09:46:12;;;;;;;21.98;14.98;;;;;;;9.28;100.00;98766.03;5071796;28;20036;-52
2021/12/28 09:48:38;;;;;;;25.00;14.90;;;;;;;9.30;100.00;98761.56;5054234;28;20036;-54
2021/12/28 09:51:05;;;;;;;25.02;15.48;;;;;;;9.27;100.00;98739.91;5054457;28;20067;-51
2021/12/28 09:53:31;;;;;;;24.92;14.95;;;;;;;9.29;100.00;98741.50;5054300;28;20036;-50
2021/12/28 09:55:56;;;;;;;23.10;14.43;;;;;;;9.35;100.00;98741.13;5066941;28;20036;-51
2021/12/28 09:58:22;;;;;;;20.90;13.10;;;;;;;9.34;100.00;98730.72;5064377;28;20400;-47
2021/12/28 10:00:47;;;;;;;19.50;13.65;;;;;;;9.03;100.00;98677.44;5071888;28;20059;-48
2021/12/28 10:03:14;;;;;;;20.63;13.52;;;;;;;9.28;100.00;98716.16;5054302;28;20530;-48
2021/12/28 10:05:39;;;;;;;17.42;12.82;;;;;;;9.38;100.00;98724.34;5054137;28;20033;-51
2021/12/28 10:08:05;;;;;;;22.50;14.50;;;;;;;9.44;100.00;98731.84;5072082;28;20085;-52
2021/12/28 10:10:35;;;;;;;18.30;14.88;;;;;;;9.41;100.00;98732.88;5072360;28;20036;-51
2021/12/28 10:13:06;;;;;;;19.55;13.65;;;;;;;9.13;100.00;98685.63;5072286;28;20032;-52
2021/12/28 10:15:35;;;;;;;15.90;12.77;;;;;;;9.43;100.00;98720.50;5072121;28;20488;-55
2021/12/28 10:18:04;;;;;;;17.63;13.68;;;;;;;9.20;100.00;98686.91;5054243;28;20549;-54
2021/12/28 10:20:38;;;;;;;12.45;11.10;;;;;;;9.12;100.00;98660.31;5071596;28;20024;-51
2021/12/28 10:23:10;;;;;;;17.30;11.65;;;;;;;9.38;100.00;98703.34;5071427;28;20024;-52
2021/12/28 10:25:47;;;;;;;14.98;10.68;;;;;;;9.19;100.00;98669.50;5072123;28;20036;-48
2021/12/28 10:28:16;;;;;;;14.35;11.35;;;;;;;9.49;100.00;98706.13;5071508;28;20494;-48
2021/12/28 10:31:04;;;;;;;12.60;9.85;;;;;;;9.50;100.00;98713.94;5070834;28;20074;-50
2021/12/28 10:33:33;;;;;;;10.23;8.18;;;;;;;9.45;100.00;98692.38;5071369;28;20028;-49
2021/12/28 10:36:02;;;;;;;8.60;7.80;;;;;;;9.51;100.00;98705.13;5052739;28;20036;-54
2021/12/28 10:38:31;;;;;;;7.60;6.90;;;;;;;9.37;100.00;98678.03;5071342;28;20456;-54
2021/12/28 10:40:59;;;;;;;8.15;6.93;;;;;;;9.15;100.00;98648.78;5071961;28;20068;-52
2021/12/28 10:43:27;;;;;;;7.57;6.88;;;;;;;9.41;100.00;98690.88;5072193;28;20029;-50
2021/12/28 10:46:01;;;;;;;9.88;7.10;;;;;;;9.30;100.00;98680.19;5071757;28;20036;-49
2021/12/28 10:48:31;;;;;;;7.85;7.05;;;;;;;9.36;100.00;98671.09;5071718;28;20549;-51
2021/12/28 10:51:04;;;;;;;13.13;6.05;;;;;;;9.43;100.00;98667.97;5053986;28;20480;-53
2021/12/28 10:53:36;;;;;;;7.65;6.00;;;;;;;9.49;100.00;98672.84;5071640;28;20021;-51
2021/12/28 10:56:04;;;;;;;9.48;6.90;;;;;;;9.52;100.00;98672.66;5071701;28;20479;-48
2021/12/28 10:58:35;;;;;;;7.65;5.93;;;;;;;9.48;100.00;98670.34;5071953;28;20031;-53
2021/12/28 11:01:12;;;;;;;8.40;6.40;;;;;;;9.47;100.00;98673.88;5071482;28;20048;-51
2021/12/28 11:03:41;;;;;;;7.00;6.25;;;;;;;9.44;100.00;98664.41;5072121;28;20039;-53
2021/12/28 11:06:11;;;;;;;10.43;6.28;;;;;;;9.29;100.00;98646.13;5053816;28;20025;-48
2021/12/28 11:08:36;;;;;;;13.27;7.55;;;;;;;9.42;100.00;98653.19;5074099;28;20028;-48
2021/12/28 11:11:06;;;;;;;13.52;9.10;;;;;;;9.42;100.00;98654.97;5057514;28;20475;-46
2021/12/28 11:13:32;;;;;;;17.70;10.55;;;;;;;9.32;100.00;98632.81;5075503;28;20422;-47
2021/12/28 11:15:59;;;;;;;13.73;8.32;;;;;;;9.41;100.00;98654.09;5075260;28;20039;-47